createdAt,value
2018-08-10T00:00:06.770Z,1008.23
2018-08-10T00:01:06.761Z,1008.22
2018-08-10T00:02:06.748Z,1008.28
2018-08-10T00:03:06.733Z,1008.29
2018-08-10T00:04:06.723Z,1008.33
2018-08-10T00:05:06.712Z,1008.36
2018-08-10T00:06:06.701Z,1008.38
2018-08-10T00:07:06.690Z,1008.36
2018-08-10T00:08:06.677Z,1008.44
2018-08-10T00:09:06.668Z,1008.45
2018-08-10T00:10:06.655Z,1008.45
2018-08-10T00:11:06.644Z,1008.48
2018-08-10T00:12:06.631Z,1008.46
2018-08-10T00:13:49.152Z,1008.48
2018-08-10T00:14:49.154Z,1008.49
2018-08-10T00:15:49.151Z,1008.48
2018-08-10T00:16:49.133Z,1008.51
2018-08-10T00:17:49.334Z,1008.52
2018-08-10T00:18:50.002Z,1008.55
2018-08-10T00:29:44.759Z,1008.63
2018-08-10T00:31:15.532Z,1008.62
2018-08-10T00:32:15.838Z,1008.59
2018-08-10T00:33:15.522Z,1008.64
2018-08-10T00:38:22.068Z,1008.63
2018-08-10T00:45:15.365Z,1008.78
2018-08-10T00:46:16.709Z,1008.82
2018-08-10T00:48:15.327Z,1008.87
2018-08-10T00:49:15.316Z,1008.87
2018-08-10T00:50:15.305Z,1008.89
2018-08-10T00:51:15.295Z,1008.88
2018-08-10T00:55:15.248Z,1008.96
2018-08-10T00:56:15.232Z,1008.95
2018-08-10T01:00:15.187Z,1009.05
2018-08-10T01:01:15.174Z,1009.05
2018-08-10T01:02:15.161Z,1009.11
2018-08-10T01:03:15.152Z,1009.07
2018-08-10T01:04:15.135Z,1009.10
2018-08-10T01:05:15.126Z,1009.13
2018-08-10T01:06:15.118Z,1009.14
2018-08-10T01:07:15.101Z,1009.10
2018-08-10T01:08:15.088Z,1009.12
2018-08-10T01:09:15.076Z,1009.11
2018-08-10T01:10:15.065Z,1009.17
2018-08-10T01:11:15.053Z,1009.15
2018-08-10T01:12:15.040Z,1009.18
2018-08-10T01:13:15.051Z,1009.17
2018-08-10T01:14:15.022Z,1009.21
2018-08-10T01:15:15.008Z,1009.18
2018-08-10T01:16:14.995Z,1009.17
2018-08-10T01:24:14.897Z,1009.21
2018-08-10T01:25:14.887Z,1009.26
2018-08-10T01:27:14.858Z,1009.27
2018-08-10T01:28:14.882Z,1009.26
2018-08-10T01:29:14.837Z,1009.26
2018-08-10T01:30:14.820Z,1009.31
2018-08-10T01:31:14.810Z,1009.31
2018-08-10T01:32:14.795Z,1009.34
2018-08-10T01:33:14.788Z,1009.36
2018-08-10T01:34:14.775Z,1009.34
2018-08-10T01:35:14.760Z,1009.32
2018-08-10T01:36:14.746Z,1009.38
2018-08-10T01:37:14.736Z,1009.35
2018-08-10T01:38:14.723Z,1009.35
2018-08-10T01:39:14.710Z,1009.37
2018-08-10T01:40:15.911Z,1009.44
2018-08-10T01:41:14.686Z,1009.42
2018-08-10T01:42:14.674Z,1009.38
2018-08-10T01:43:14.662Z,1009.40
2018-08-10T01:44:14.657Z,1009.42
2018-08-10T01:45:14.638Z,1009.49
2018-08-10T01:46:14.626Z,1009.48
2018-08-10T01:47:14.612Z,1009.50
2018-08-10T01:48:14.600Z,1009.51
2018-08-10T01:49:14.587Z,1009.55
2018-08-10T01:50:14.575Z,1009.55
2018-08-10T01:51:14.562Z,1009.52
2018-08-10T01:52:14.550Z,1009.53
2018-08-10T01:55:14.514Z,1009.55
2018-08-10T01:56:14.506Z,1009.57
2018-08-10T01:57:14.487Z,1009.55
2018-08-10T01:58:14.476Z,1009.59
2018-08-10T01:59:14.465Z,1009.61
2018-08-10T02:00:14.450Z,1009.62
2018-08-10T02:01:14.437Z,1009.67
2018-08-10T02:02:14.426Z,1009.66
2018-08-10T02:03:14.413Z,1009.65
2018-08-10T02:04:14.400Z,1009.74
2018-08-10T02:05:14.389Z,1009.69
2018-08-10T02:06:14.375Z,1009.71
2018-08-10T02:07:14.365Z,1009.75
2018-08-10T02:08:14.357Z,1009.78
2018-08-10T02:09:14.338Z,1009.76
2018-08-10T02:10:14.327Z,1009.85
2018-08-10T02:11:14.314Z,1009.85
2018-08-10T02:12:14.300Z,1009.93
2018-08-10T02:13:14.290Z,1009.90
2018-08-10T02:14:14.276Z,1009.98
2018-08-10T02:15:14.265Z,1009.97
2018-08-10T02:16:14.255Z,1010.00
2018-08-10T02:17:14.250Z,1009.99
2018-08-10T02:18:14.227Z,1010.00
2018-08-10T02:19:14.220Z,1010.03
2018-08-10T02:20:14.209Z,1010.03
2018-08-10T02:21:14.192Z,1010.03
2018-08-10T02:22:14.178Z,1010.05
2018-08-10T02:23:14.164Z,1010.08
2018-08-10T02:24:14.152Z,1010.12
2018-08-10T02:25:14.140Z,1010.14
2018-08-10T02:26:14.132Z,1010.17
2018-08-10T02:27:14.133Z,1010.18
2018-08-10T02:28:14.103Z,1010.18
2018-08-10T02:29:14.091Z,1010.20
2018-08-10T02:30:14.081Z,1010.23
2018-08-10T02:31:14.071Z,1010.27
2018-08-10T02:32:14.053Z,1010.26
2018-08-10T02:33:14.041Z,1010.28
2018-08-10T02:34:14.027Z,1010.28
2018-08-10T02:35:14.018Z,1010.22
2018-08-10T02:36:14.003Z,1010.19
2018-08-10T02:37:13.993Z,1010.21
2018-08-10T02:38:13.984Z,1010.19
2018-08-10T02:39:13.966Z,1010.22
2018-08-10T02:40:13.959Z,1010.23
2018-08-10T02:41:13.942Z,1010.29
2018-08-10T02:42:13.931Z,1010.28
2018-08-10T02:43:13.917Z,1010.32
2018-08-10T02:44:13.908Z,1010.34
2018-08-10T02:45:13.894Z,1010.32
2018-08-10T02:46:13.881Z,1010.41
2018-08-10T02:47:13.869Z,1010.41
2018-08-10T02:48:13.854Z,1010.44
2018-08-10T02:49:13.844Z,1010.43
2018-08-10T02:50:13.828Z,1010.43
2018-08-10T02:51:13.819Z,1010.45
2018-08-10T02:52:13.806Z,1010.38
2018-08-10T02:53:13.795Z,1010.41
2018-08-10T02:54:13.779Z,1010.44
2018-08-10T02:55:13.770Z,1010.44
2018-08-10T02:56:13.758Z,1010.49
2018-08-10T02:57:13.742Z,1010.46
2018-08-10T02:58:13.731Z,1010.45
2018-08-10T02:59:13.718Z,1010.46
2018-08-10T03:00:13.932Z,1010.44
2018-08-10T03:01:13.696Z,1010.43
2018-08-10T03:03:11.419Z,1010.43
2018-08-10T03:04:11.406Z,1010.42
2018-08-10T03:05:11.394Z,1010.42
2018-08-10T03:06:11.379Z,1010.44
2018-08-10T03:07:11.370Z,1010.39
2018-08-10T03:08:11.359Z,1010.42
2018-08-10T03:09:11.352Z,1010.44
2018-08-10T03:10:11.333Z,1010.48
2018-08-10T03:11:11.323Z,1010.44
2018-08-10T03:12:11.306Z,1010.46
2018-08-10T03:13:11.295Z,1010.48
2018-08-10T03:14:11.283Z,1010.48
2018-08-10T03:15:11.276Z,1010.51
2018-08-10T03:16:11.256Z,1010.49
2018-08-10T03:17:11.243Z,1010.51
2018-08-10T03:18:11.230Z,1010.54
2018-08-10T03:19:11.217Z,1010.59
2018-08-10T03:20:11.206Z,1010.67
2018-08-10T03:21:11.192Z,1010.65
2018-08-10T03:22:11.209Z,1010.69
2018-08-10T03:23:11.169Z,1010.68
2018-08-10T03:24:11.159Z,1010.67
2018-08-10T03:25:11.141Z,1010.71
2018-08-10T03:26:11.131Z,1010.69
2018-08-10T03:27:11.119Z,1010.70
2018-08-10T03:28:11.110Z,1010.70
2018-08-10T03:29:11.097Z,1010.72
2018-08-10T03:30:11.080Z,1010.76
2018-08-10T03:31:11.068Z,1010.83
2018-08-10T03:32:11.055Z,1010.87
2018-08-10T03:33:11.043Z,1010.84
2018-08-10T03:34:11.029Z,1010.88
2018-08-10T03:35:11.016Z,1010.91
2018-08-10T03:36:11.004Z,1010.92
2018-08-10T03:37:10.993Z,1010.97
2018-08-10T03:38:10.980Z,1010.98
2018-08-10T03:39:10.972Z,1011.04
2018-08-10T03:40:10.957Z,1010.99
2018-08-10T03:41:10.941Z,1011.01
2018-08-10T03:42:10.929Z,1011.02
2018-08-10T03:43:10.916Z,1010.99
2018-08-10T03:44:10.904Z,1011.03
2018-08-10T03:45:10.892Z,1011.00
2018-08-10T03:46:10.878Z,1011.02
2018-08-10T03:47:10.875Z,1011.03
2018-08-10T03:48:10.856Z,1011.09
2018-08-10T03:49:10.842Z,1011.13
2018-08-10T03:50:10.834Z,1011.12
2018-08-10T03:51:10.815Z,1011.17
2018-08-10T03:52:10.805Z,1011.13
2018-08-10T03:53:10.792Z,1011.11
2018-08-10T03:54:10.779Z,1011.13
2018-08-10T03:55:10.767Z,1011.16
2018-08-10T03:56:10.755Z,1011.16
2018-08-10T03:57:10.745Z,1011.18
2018-08-10T03:58:10.730Z,1011.18
2018-08-10T03:59:10.718Z,1011.18
2018-08-10T04:00:10.706Z,1011.15
2018-08-10T04:01:10.691Z,1011.13
2018-08-10T04:02:10.680Z,1011.21
2018-08-10T04:03:10.668Z,1011.21
2018-08-10T04:04:10.656Z,1011.26
2018-08-10T04:05:10.645Z,1011.28
2018-08-10T04:06:10.628Z,1011.32
2018-08-10T04:07:10.618Z,1011.30
2018-08-10T04:08:10.605Z,1011.31
2018-08-10T04:09:10.590Z,1011.27
2018-08-10T04:10:10.578Z,1011.30
2018-08-10T04:11:10.566Z,1011.30
2018-08-10T04:12:13.175Z,1011.31
2018-08-10T04:13:10.541Z,1011.37
2018-08-10T04:14:10.529Z,1011.40
2018-08-10T04:15:10.519Z,1011.42
2018-08-10T04:16:10.506Z,1011.40
2018-08-10T04:17:10.492Z,1011.42
2018-08-10T04:18:10.482Z,1011.39
2018-08-10T04:19:10.468Z,1011.42
2018-08-10T04:20:10.455Z,1011.42
2018-08-10T04:21:10.448Z,1011.44
2018-08-10T04:22:10.433Z,1011.42
2018-08-10T04:23:10.421Z,1011.46
2018-08-10T04:24:10.410Z,1011.41
2018-08-10T04:25:10.396Z,1011.39
2018-08-10T04:26:10.382Z,1011.43
2018-08-10T04:27:10.373Z,1011.44
2018-08-10T04:28:10.356Z,1011.46
2018-08-10T04:29:10.343Z,1011.48
2018-08-10T04:30:10.350Z,1011.52
2018-08-10T04:31:10.320Z,1011.46
2018-08-10T04:32:10.318Z,1011.50
2018-08-10T04:33:10.308Z,1011.55
2018-08-10T04:34:10.286Z,1011.58
2018-08-10T04:35:10.270Z,1011.62
2018-08-10T04:46:44.150Z,1011.85
2018-08-10T04:47:44.137Z,1011.77
2018-08-10T04:48:44.133Z,1011.78
2018-08-10T04:49:44.113Z,1011.83
2018-08-10T04:50:44.101Z,1011.86
2018-08-10T04:51:44.091Z,1011.87
2018-08-10T04:52:44.078Z,1011.90
2018-08-10T04:53:44.065Z,1011.99
2018-08-10T04:54:44.057Z,1012.03
2018-08-10T04:55:44.040Z,1012.03
2018-08-10T04:56:44.031Z,1012.03
2018-08-10T04:57:44.018Z,1012.04
2018-08-10T04:58:44.006Z,1012.12
2018-08-10T04:59:43.993Z,1012.10
2018-08-10T05:00:43.980Z,1012.16
2018-08-10T05:01:43.971Z,1012.13
2018-08-10T05:02:43.956Z,1012.17
2018-08-10T05:03:43.985Z,1012.17
2018-08-10T05:04:43.932Z,1012.16
2018-08-10T05:05:43.919Z,1012.17
2018-08-10T05:06:43.910Z,1012.15
2018-08-10T05:07:43.894Z,1012.12
2018-08-10T05:08:43.895Z,1012.11
2018-08-10T05:09:43.917Z,1012.09
2018-08-10T05:10:43.858Z,1012.11
2018-08-10T05:11:43.847Z,1012.16
2018-08-10T05:12:43.832Z,1012.18
2018-08-10T05:13:43.821Z,1012.17
2018-08-10T05:14:43.812Z,1012.20
2018-08-10T05:15:43.846Z,1012.16
2018-08-10T05:16:43.783Z,1012.18
2018-08-10T05:17:43.776Z,1012.26
2018-08-10T05:18:43.758Z,1012.25
2018-08-10T05:19:43.751Z,1012.27
2018-08-10T05:20:43.740Z,1012.25
2018-08-10T05:21:43.724Z,1012.21
2018-08-10T05:22:43.713Z,1012.23
2018-08-10T05:23:43.699Z,1012.26
2018-08-10T05:24:43.723Z,1012.27
2018-08-10T05:25:43.674Z,1012.37
2018-08-10T05:26:43.661Z,1012.40
2018-08-10T05:27:43.663Z,1012.45
2018-08-10T05:28:43.645Z,1012.44
2018-08-10T05:29:43.623Z,1012.45
2018-08-10T05:30:43.616Z,1012.46
2018-08-10T05:31:43.599Z,1012.49
2018-08-10T05:32:43.592Z,1012.50
2018-08-10T05:33:47.612Z,1012.48
2018-08-10T05:34:43.576Z,1012.49
2018-08-10T05:35:43.551Z,1012.55
2018-08-10T05:36:43.538Z,1012.57
2018-08-10T05:37:43.525Z,1012.66
2018-08-10T05:38:43.517Z,1012.63
2018-08-10T05:39:43.502Z,1012.67
2018-08-10T05:40:43.490Z,1012.72
2018-08-10T05:41:43.478Z,1012.85
2018-08-10T05:42:43.467Z,1012.86
2018-08-10T05:43:43.454Z,1012.93
2018-08-10T05:44:43.446Z,1012.93
2018-08-10T05:45:43.427Z,1013.00
2018-08-10T05:46:43.463Z,1013.08
2018-08-10T05:47:43.406Z,1013.08
2018-08-10T05:48:43.391Z,1013.11
2018-08-10T05:49:43.380Z,1013.14
2018-08-10T05:50:43.369Z,1013.16
2018-08-10T05:51:43.365Z,1013.19
2018-08-10T05:52:43.343Z,1013.29
2018-08-10T05:53:43.330Z,1013.27
2018-08-10T05:54:43.319Z,1013.28
2018-08-10T05:55:43.306Z,1013.34
2018-08-10T05:56:43.296Z,1013.28
2018-08-10T05:57:43.284Z,1013.27
2018-08-10T05:58:43.269Z,1013.30
2018-08-10T05:59:43.255Z,1013.33
2018-08-10T06:00:43.311Z,1013.34
2018-08-10T06:01:43.233Z,1013.34
2018-08-10T06:02:45.841Z,1013.36
2018-08-10T06:03:46.001Z,1013.39
2018-08-10T06:05:25.731Z,1013.43
2018-08-10T06:06:28.338Z,1013.43
2018-08-10T06:07:26.108Z,1013.56
2018-08-10T06:11:50.872Z,1013.64
2018-08-10T06:14:43.395Z,1013.66
2018-08-10T06:15:43.386Z,1013.76
2018-08-10T06:22:22.048Z,1013.85
2018-08-10T06:41:43.940Z,1014.41
2018-08-10T06:42:43.917Z,1014.48
2018-08-10T06:43:43.910Z,1014.50
2018-08-10T06:46:27.162Z,1014.59
2018-08-10T06:47:27.151Z,1014.67
2018-08-10T06:48:27.141Z,1014.68
2018-08-10T06:49:27.125Z,1014.70
2018-08-10T06:50:27.113Z,1014.76
2018-08-10T06:51:27.109Z,1014.71
2018-08-10T06:52:27.094Z,1014.70
2018-08-10T06:53:27.076Z,1014.74
2018-08-10T06:54:29.685Z,1014.77
2018-08-10T06:55:27.054Z,1014.81
2018-08-10T06:57:09.566Z,1014.86
2018-08-10T06:58:09.556Z,1014.81
2018-08-10T06:59:09.548Z,1014.89
2018-08-10T07:00:09.531Z,1014.80
2018-08-10T07:01:09.597Z,1014.83
2018-08-10T07:02:09.511Z,1014.82
2018-08-10T07:03:09.496Z,1014.83
2018-08-10T07:04:09.488Z,1014.86
2018-08-10T07:05:09.473Z,1014.84
2018-08-10T07:06:09.456Z,1014.89
2018-08-10T07:07:09.444Z,1014.91
2018-08-10T07:08:09.432Z,1014.89
2018-08-10T07:09:09.418Z,1014.85
2018-08-10T07:10:09.411Z,1014.86
2018-08-10T07:11:09.400Z,1014.86
2018-08-10T07:13:52.649Z,1014.77
2018-08-10T07:14:52.640Z,1014.72
2018-08-10T07:15:52.633Z,1014.82
2018-08-10T07:16:52.613Z,1014.83
2018-08-10T07:17:52.605Z,1014.75
2018-08-10T07:18:52.590Z,1014.72
2018-08-10T07:19:52.581Z,1014.74
2018-08-10T07:20:52.564Z,1014.74
2018-08-10T07:21:52.554Z,1014.87
2018-08-10T07:22:52.541Z,1014.88
2018-08-10T07:23:52.524Z,1014.91
2018-08-10T07:24:52.517Z,1014.94
2018-08-10T07:25:52.500Z,1014.98
2018-08-10T07:26:52.536Z,1015.02
2018-08-10T07:27:53.688Z,1014.99
2018-08-10T07:29:40.003Z,1015.08
2018-08-10T08:41:14.055Z,1016.60
2018-08-10T08:48:46.456Z,1016.85
2018-08-10T08:49:46.445Z,1016.84
2018-08-10T08:50:46.432Z,1016.87
2018-08-10T08:51:46.424Z,1017.00
2018-08-10T08:52:46.407Z,1017.01
2018-08-10T08:53:46.402Z,1016.96
2018-08-10T08:54:46.385Z,1017.00
2018-08-10T08:55:46.371Z,1017.07
2018-08-10T08:56:46.362Z,1016.98
2018-08-10T08:57:46.350Z,1017.04
2018-08-10T08:58:46.339Z,1017.16
2018-08-10T08:59:46.330Z,1017.14
2018-08-10T09:00:46.320Z,1017.23
2018-08-10T09:01:46.304Z,1017.20
2018-08-10T09:02:46.295Z,1017.31
2018-08-10T09:03:46.285Z,1017.31
2018-08-10T09:04:46.277Z,1017.32
2018-08-10T09:05:46.262Z,1017.16
2018-08-10T09:06:46.251Z,1017.16
2018-08-10T09:07:46.289Z,1017.06
2018-08-10T09:08:46.228Z,1017.00
2018-08-10T09:09:46.220Z,1016.90
2018-08-10T09:10:46.205Z,1017.07
2018-08-10T09:11:46.195Z,1017.07
2018-08-10T09:12:46.186Z,1016.96
2018-08-10T09:13:46.175Z,1016.95
2018-08-10T09:14:46.169Z,1016.96
2018-08-10T09:15:46.157Z,1016.98
2018-08-10T09:16:46.144Z,1016.99
2018-08-10T09:17:46.136Z,1016.99
2018-08-10T09:18:46.126Z,1017.06
2018-08-10T09:19:46.109Z,1016.97
2018-08-10T09:20:46.102Z,1016.95
2018-08-10T09:21:46.094Z,1016.87
2018-08-10T09:22:46.080Z,1016.85
2018-08-10T09:23:46.071Z,1016.88
2018-08-10T09:24:46.068Z,1016.84
2018-08-10T09:25:46.049Z,1016.97
2018-08-10T09:26:46.038Z,1016.96
2018-08-10T09:27:46.028Z,1016.93
2018-08-10T09:28:46.016Z,1016.87
2018-08-10T09:29:46.006Z,1016.90
2018-08-10T09:30:45.992Z,1016.91
2018-08-10T09:31:45.986Z,1016.85
2018-08-10T09:32:45.977Z,1016.88
2018-08-10T09:33:45.968Z,1016.84
2018-08-10T09:34:45.954Z,1016.88
2018-08-10T09:35:45.948Z,1016.91
2018-08-10T09:36:45.929Z,1016.91
2018-08-10T09:37:45.920Z,1016.91
2018-08-10T09:38:45.908Z,1016.88
2018-08-10T09:39:45.899Z,1016.91
2018-08-10T09:40:45.886Z,1016.91
2018-08-10T09:41:45.878Z,1016.91
2018-08-10T09:42:45.868Z,1016.93
2018-08-10T09:43:45.856Z,1016.93
2018-08-10T09:44:45.845Z,1016.91
2018-08-10T09:45:45.834Z,1016.90
2018-08-10T09:46:45.822Z,1016.94
2018-08-10T09:47:45.815Z,1016.91
2018-08-10T09:48:45.801Z,1016.94
2018-08-10T09:49:45.796Z,1016.97
2018-08-10T09:50:45.780Z,1017.04
2018-08-10T09:51:45.771Z,1017.01
2018-08-10T09:52:45.759Z,1016.98
2018-08-10T09:53:45.751Z,1017.13
2018-08-10T09:54:45.737Z,1017.11
2018-08-10T09:55:45.732Z,1017.15
2018-08-10T09:56:45.717Z,1017.16
2018-08-10T09:57:45.732Z,1017.21
2018-08-10T09:58:45.699Z,1017.31
2018-08-10T09:59:45.731Z,1017.34
2018-08-10T10:00:45.673Z,1017.37
2018-08-10T10:01:45.668Z,1017.28
2018-08-10T10:02:45.661Z,1017.27
2018-08-10T10:03:45.646Z,1017.29
2018-08-10T10:04:45.636Z,1017.23
2018-08-10T10:05:45.627Z,1017.26
2018-08-10T10:06:45.613Z,1017.28
2018-08-10T10:07:45.612Z,1017.35
2018-08-10T10:08:45.599Z,1017.29
2018-08-10T10:09:45.585Z,1017.22
2018-08-10T10:10:45.575Z,1017.19
2018-08-10T10:11:45.565Z,1017.19
2018-08-10T10:12:45.557Z,1017.05
2018-08-10T10:13:45.544Z,1017.15
2018-08-10T10:14:45.536Z,1017.15
2018-08-10T10:15:45.526Z,1017.24
2018-08-10T10:16:45.516Z,1017.26
2018-08-10T10:17:45.506Z,1017.22
2018-08-10T10:18:45.498Z,1017.33
2018-08-10T10:19:45.486Z,1017.33
2018-08-10T10:20:45.510Z,1017.32
2018-08-10T10:21:45.466Z,1017.32
2018-08-10T10:22:45.456Z,1017.29
2018-08-10T10:23:45.449Z,1017.36
2018-08-10T10:24:45.440Z,1017.50
2018-08-10T10:25:45.436Z,1017.58
2018-08-10T10:26:45.419Z,1017.62
2018-08-10T10:27:45.409Z,1017.61
2018-08-10T10:28:45.401Z,1017.62
2018-08-10T10:29:45.393Z,1017.50
2018-08-10T10:30:45.388Z,1017.40
2018-08-10T10:31:45.391Z,1017.60
2018-08-10T10:32:45.470Z,1017.49
2018-08-10T10:33:45.358Z,1017.75
2018-08-10T10:34:45.351Z,1017.66
2018-08-10T10:35:45.342Z,1017.47
2018-08-10T10:36:45.337Z,1017.44
2018-08-10T10:37:45.330Z,1017.60
2018-08-10T10:38:45.318Z,1017.50
2018-08-10T10:39:45.314Z,1017.46
2018-08-10T10:40:45.304Z,1017.47
2018-08-10T10:41:45.313Z,1017.45
2018-08-10T10:42:45.291Z,1017.59
2018-08-10T10:43:45.281Z,1017.63
2018-08-10T10:44:45.275Z,1017.63
2018-08-10T10:45:45.267Z,1017.58
2018-08-10T10:46:45.260Z,1017.40
2018-08-10T10:47:45.253Z,1017.41
2018-08-10T10:48:45.248Z,1017.52
2018-08-10T10:49:45.241Z,1017.47
2018-08-10T10:50:45.242Z,1017.49
2018-08-10T10:51:45.226Z,1017.44
2018-08-10T10:52:45.225Z,1017.42
2018-08-10T10:53:45.212Z,1017.35
2018-08-10T10:54:45.204Z,1017.29
2018-08-10T10:55:45.196Z,1017.38
2018-08-10T10:56:45.281Z,1017.30
2018-08-10T10:57:45.182Z,1017.42
2018-08-10T10:58:45.170Z,1017.43
2018-08-10T10:59:45.168Z,1017.47
2018-08-10T11:00:45.161Z,1017.63
2018-08-10T11:01:45.164Z,1017.59
2018-08-10T11:02:45.143Z,1017.62
2018-08-10T11:03:45.135Z,1017.57
2018-08-10T11:04:45.130Z,1017.74
2018-08-10T11:05:45.119Z,1017.66
2018-08-10T11:06:45.113Z,1017.69
2018-08-10T11:07:45.110Z,1017.65
2018-08-10T11:08:45.103Z,1017.64
2018-08-10T11:09:45.093Z,1017.66
2018-08-10T11:10:45.085Z,1017.65
2018-08-10T11:11:45.077Z,1017.57
2018-08-10T11:12:45.074Z,1017.53
2018-08-10T11:13:45.062Z,1017.61
2018-08-10T11:14:45.057Z,1017.64
2018-08-10T11:15:45.049Z,1017.65
2018-08-10T11:16:45.045Z,1017.62
2018-08-10T11:17:45.036Z,1017.65
2018-08-10T11:18:45.027Z,1017.78
2018-08-10T11:19:45.020Z,1017.85
2018-08-10T11:20:45.020Z,1018.01
2018-08-10T11:21:45.009Z,1017.93
2018-08-10T11:22:45.003Z,1017.84
2018-08-10T11:23:44.996Z,1017.91
2018-08-10T11:24:44.987Z,1018.13
2018-08-10T11:25:45.085Z,1018.02
2018-08-10T11:26:44.973Z,1018.13
2018-08-10T11:27:44.966Z,1018.06
2018-08-10T11:28:44.958Z,1018.17
2018-08-10T11:29:44.951Z,1018.15
2018-08-10T11:30:44.946Z,1018.18
2018-08-10T11:31:44.938Z,1017.88
2018-08-10T11:32:44.934Z,1018.11
2018-08-10T11:33:44.927Z,1018.19
2018-08-10T11:34:44.930Z,1018.44
2018-08-10T11:35:45.119Z,1018.35
2018-08-10T11:36:44.912Z,1018.35
2018-08-10T11:37:44.907Z,1018.44
2018-08-10T11:38:44.896Z,1018.40
2018-08-10T11:39:44.892Z,1018.41
2018-08-10T11:40:44.889Z,1018.41
2018-08-10T11:41:44.883Z,1018.57
2018-08-10T11:42:44.879Z,1018.75
2018-08-10T11:43:44.871Z,1017.90
2018-08-10T11:44:44.865Z,1018.34
2018-08-10T11:45:44.870Z,1017.90
2018-08-10T11:46:44.858Z,1017.86
2018-08-10T11:47:44.853Z,1017.84
2018-08-10T11:48:44.848Z,1017.87
2018-08-10T11:49:44.846Z,1017.87
2018-08-10T11:50:44.836Z,1018.56
2018-08-10T11:51:44.837Z,1018.71
2018-08-10T11:52:44.828Z,1018.20
2018-08-10T11:53:44.822Z,1018.23
2018-08-10T11:54:44.818Z,1018.25
2018-08-10T11:55:44.813Z,1018.24
2018-08-10T11:56:44.805Z,1018.65
2018-08-10T11:57:44.802Z,1018.51
2018-08-10T11:58:44.811Z,1018.74
2018-08-10T11:59:44.793Z,1018.70
2018-08-10T12:00:44.787Z,1018.67
2018-08-10T12:01:44.815Z,1018.68
2018-08-10T12:02:44.783Z,1018.54
2018-08-10T12:03:44.775Z,1018.74
2018-08-10T12:04:44.770Z,1018.00
2018-08-10T12:05:44.787Z,1018.70
2018-08-10T12:06:44.760Z,1018.72
2018-08-10T12:07:44.756Z,1017.99
2018-08-10T12:08:44.752Z,1018.59
2018-08-10T12:09:44.749Z,1018.19
2018-08-10T12:10:44.747Z,1017.98
2018-08-10T12:11:44.743Z,1018.01
2018-08-10T12:12:44.754Z,1017.91
2018-08-10T12:13:44.737Z,1017.87
2018-08-10T12:14:44.726Z,1017.86
2018-08-10T12:15:44.727Z,1017.86
2018-08-10T12:16:44.719Z,1017.92
2018-08-10T12:17:44.714Z,1018.08
2018-08-10T12:18:44.711Z,1017.97
2018-08-10T12:19:44.707Z,1017.91
2018-08-10T12:20:44.700Z,1017.96
2018-08-10T12:21:44.695Z,1017.90
2018-08-10T12:22:44.691Z,1017.81
2018-08-10T12:23:44.686Z,1018.00
2018-08-10T12:24:44.738Z,1018.18
2018-08-10T12:25:44.677Z,1018.18
2018-08-10T12:26:44.674Z,1018.11
2018-08-10T12:27:44.672Z,1018.08
2018-08-10T12:28:44.663Z,1017.94
2018-08-10T12:29:44.654Z,1017.85
2018-08-10T12:30:44.648Z,1017.85
2018-08-10T12:31:44.643Z,1017.89
2018-08-10T12:32:44.639Z,1017.85
2018-08-10T12:33:44.637Z,1017.85
2018-08-10T12:34:44.640Z,1017.83
2018-08-10T12:35:44.620Z,1017.88
2018-08-10T12:36:44.620Z,1017.91
2018-08-10T12:37:44.613Z,1017.83
2018-08-10T12:38:44.608Z,1017.82
2018-08-10T12:39:44.601Z,1017.92
2018-08-10T12:40:44.595Z,1017.92
2018-08-10T12:41:44.590Z,1018.01
2018-08-10T12:42:44.585Z,1018.13
2018-08-10T12:43:44.575Z,1018.19
2018-08-10T12:44:44.571Z,1018.31
2018-08-10T12:45:44.565Z,1018.05
2018-08-10T12:46:44.561Z,1017.89
2018-08-10T12:47:44.733Z,1017.98
2018-08-10T12:48:44.548Z,1017.99
2018-08-10T12:49:44.538Z,1018.02
2018-08-10T12:50:44.615Z,1017.94
2018-08-10T12:51:44.538Z,1017.96
2018-08-10T12:52:44.524Z,1018.04
2018-08-10T12:53:44.513Z,1017.88
2018-08-10T12:54:44.513Z,1017.88
2018-08-10T12:55:44.503Z,1017.78
2018-08-10T12:56:44.494Z,1017.86
2018-08-10T12:57:44.492Z,1017.91
2018-08-10T12:58:44.486Z,1017.76
2018-08-10T12:59:44.475Z,1017.76
2018-08-10T13:00:44.469Z,1017.80
2018-08-10T13:01:44.467Z,1017.91
2018-08-10T13:02:44.609Z,1017.90
2018-08-10T13:03:44.448Z,1017.87
2018-08-10T13:04:44.441Z,1017.83
2018-08-10T13:05:44.447Z,1017.81
2018-08-10T13:06:44.434Z,1017.82
2018-08-10T13:07:44.423Z,1017.84
2018-08-10T13:08:44.419Z,1017.92
2018-08-10T13:09:44.412Z,1017.88
2018-08-10T13:10:44.474Z,1017.83
2018-08-10T13:11:44.396Z,1017.82
2018-08-10T13:12:44.390Z,1017.78
2018-08-10T13:13:44.376Z,1017.85
2018-08-10T13:14:44.370Z,1018.00
2018-08-10T13:15:44.363Z,1018.00
2018-08-10T13:16:44.355Z,1017.97
2018-08-10T13:17:44.353Z,1017.87
2018-08-10T13:18:44.348Z,1017.83
2018-08-10T13:19:44.333Z,1017.86
2018-08-10T13:20:44.331Z,1017.87
2018-08-10T13:21:44.323Z,1017.89
2018-08-10T13:22:44.312Z,1018.04
2018-08-10T13:23:44.351Z,1017.97
2018-08-10T13:24:44.298Z,1018.00
2018-08-10T13:25:44.291Z,1017.97
2018-08-10T13:26:44.278Z,1017.96
2018-08-10T13:27:44.274Z,1018.00
2018-08-10T13:28:44.271Z,1017.99
2018-08-10T13:29:44.259Z,1018.04
2018-08-10T13:30:44.250Z,1018.02
2018-08-10T13:31:44.242Z,1018.01
2018-08-10T13:32:44.233Z,1017.86
2018-08-10T13:33:44.230Z,1017.86
2018-08-10T13:34:44.220Z,1017.89
2018-08-10T13:35:44.210Z,1017.93
2018-08-10T13:36:44.209Z,1017.95
2018-08-10T13:37:44.196Z,1017.92
2018-08-10T13:38:44.185Z,1018.04
2018-08-10T13:39:44.187Z,1018.06
2018-08-10T13:40:44.209Z,1017.98
2018-08-10T13:41:44.161Z,1017.87
2018-08-10T13:42:44.150Z,1017.93
2018-08-10T13:43:44.298Z,1017.92
2018-08-10T13:44:44.133Z,1017.89
2018-08-10T13:45:44.130Z,1018.03
2018-08-10T13:46:44.119Z,1018.00
2018-08-10T13:47:44.114Z,1017.97
2018-08-10T13:48:44.104Z,1018.01
2018-08-10T13:49:44.093Z,1018.05
2018-08-10T13:50:44.088Z,1018.05
2018-08-10T13:51:44.080Z,1017.96
2018-08-10T13:52:44.071Z,1018.10
2018-08-10T13:53:44.064Z,1018.06
2018-08-10T13:54:44.051Z,1018.06
2018-08-10T13:55:44.046Z,1018.04
2018-08-10T13:56:44.032Z,1018.04
2018-08-10T13:57:44.024Z,1017.91
2018-08-10T13:58:44.076Z,1017.90
2018-08-10T13:59:44.005Z,1018.02
2018-08-10T14:00:44.007Z,1018.06
2018-08-10T14:01:43.996Z,1017.99
2018-08-10T14:02:43.983Z,1017.95
2018-08-10T14:03:43.974Z,1017.97
2018-08-10T14:04:43.964Z,1017.97
2018-08-10T14:05:43.987Z,1017.99
2018-08-10T14:06:43.945Z,1017.98
2018-08-10T14:07:43.940Z,1018.00
2018-08-10T14:08:43.937Z,1017.97
2018-08-10T14:09:43.925Z,1017.93
2018-08-10T14:10:43.920Z,1018.02
2018-08-10T14:11:43.909Z,1017.96
2018-08-10T14:12:43.899Z,1018.05
2018-08-10T14:13:43.889Z,1018.04
2018-08-10T14:14:43.882Z,1018.16
2018-08-10T14:15:43.929Z,1018.13
2018-08-10T14:16:43.861Z,1018.11
2018-08-10T14:17:43.854Z,1018.01
2018-08-10T14:18:43.846Z,1017.92
2018-08-10T14:19:43.835Z,1017.96
2018-08-10T14:20:43.829Z,1017.98
2018-08-10T14:21:43.816Z,1017.86
2018-08-10T14:22:43.805Z,1017.86
2018-08-10T14:23:43.797Z,1017.91
2018-08-10T14:24:43.790Z,1017.95
2018-08-10T14:25:43.781Z,1017.96
2018-08-10T14:26:43.773Z,1017.97
2018-08-10T14:27:43.766Z,1017.93
2018-08-10T14:28:43.766Z,1017.90
2018-08-10T14:29:43.749Z,1017.89
2018-08-10T14:30:43.741Z,1017.90
2018-08-10T14:31:43.744Z,1017.93
2018-08-10T14:32:43.717Z,1017.93
2018-08-10T14:33:43.706Z,1017.84
2018-08-10T14:34:43.700Z,1017.82
2018-08-10T14:35:43.689Z,1017.84
2018-08-10T14:36:43.677Z,1017.87
2018-08-10T14:37:43.670Z,1017.92
2018-08-10T14:38:43.660Z,1017.91
2018-08-10T14:39:43.658Z,1017.95
2018-08-10T14:40:43.644Z,1018.05
2018-08-10T14:41:43.637Z,1017.91
2018-08-10T14:42:43.630Z,1017.94
2018-08-10T14:43:43.617Z,1017.90
2018-08-10T14:44:43.606Z,1017.86
2018-08-10T14:45:43.598Z,1017.89
2018-08-10T14:46:43.604Z,1017.89